sensor_id;sensor_type;location;lat;lon;timestamp;P1;durP1;ratioP1;P2;durP2;ratioP2
69621;SDS011;56841;55.964;37.674;2023-03-24T00:00:45;14.23;;;7.07;;
69621;SDS011;56841;55.964;37.674;2023-03-24T00:03:11;14.80;;;7.60;;
69621;SDS011;56841;55.964;37.674;2023-03-24T00:05:41;16.05;;;8.77;;
69621;SDS011;56841;55.964;37.674;2023-03-24T00:08:08;12.05;;;6.55;;
69621;SDS011;56841;55.964;37.674;2023-03-24T00:10:34;13.35;;;5.63;;
69621;SDS011;56841;55.964;37.674;2023-03-24T00:13:00;13.18;;;7.28;;
69621;SDS011;56841;55.964;37.674;2023-03-24T00:15:27;13.38;;;6.45;;
69621;SDS011;56841;55.964;37.674;2023-03-24T00:17:53;14.50;;;5.90;;
69621;SDS011;56841;55.964;37.674;2023-03-24T00:20:22;12.73;;;5.85;;
69621;SDS011;56841;55.964;37.674;2023-03-24T00:22:51;13.00;;;5.45;;
69621;SDS011;56841;55.964;37.674;2023-03-24T00:25:23;18.10;;;7.47;;
69621;SDS011;56841;55.964;37.674;2023-03-24T00:27:54;13.55;;;8.00;;
69621;SDS011;56841;55.964;37.674;2023-03-24T00:30:21;17.20;;;7.00;;
69621;SDS011;56841;55.964;37.674;2023-03-24T00:32:49;13.07;;;6.28;;
69621;SDS011;56841;55.964;37.674;2023-03-24T00:35:16;15.77;;;6.80;;
69621;SDS011;56841;55.964;37.674;2023-03-24T00:37:44;11.60;;;5.18;;
69621;SDS011;56841;55.964;37.674;2023-03-24T00:40:15;15.50;;;6.97;;
69621;SDS011;56841;55.964;37.674;2023-03-24T00:42:43;15.77;;;8.25;;
69621;SDS011;56841;55.964;37.674;2023-03-24T00:45:11;10.60;;;4.68;;
69621;SDS011;56841;55.964;37.674;2023-03-24T00:47:39;13.27;;;6.47;;
69621;SDS011;56841;55.964;37.674;2023-03-24T00:50:07;16.20;;;7.72;;
69621;SDS011;56841;55.964;37.674;2023-03-24T00:52:36;14.90;;;6.95;;
69621;SDS011;56841;55.964;37.674;2023-03-24T00:55:09;12.13;;;6.00;;
69621;SDS011;56841;55.964;37.674;2023-03-24T01:00:14;17.08;;;7.60;;
69621;SDS011;56841;55.964;37.674;2023-03-24T01:02:43;14.95;;;8.27;;
69621;SDS011;56841;55.964;37.674;2023-03-24T01:05:11;18.23;;;7.70;;
69621;SDS011;56841;55.964;37.674;2023-03-24T01:07:39;13.32;;;5.20;;
69621;SDS011;56841;55.964;37.674;2023-03-24T01:10:06;11.88;;;5.38;;
69621;SDS011;56841;55.964;37.674;2023-03-24T01:12:38;12.82;;;5.97;;
69621;SDS011;56841;55.964;37.674;2023-03-24T01:15:06;12.63;;;5.93;;
69621;SDS011;56841;55.964;37.674;2023-03-24T01:17:36;12.07;;;5.45;;
69621;SDS011;56841;55.964;37.674;2023-03-24T01:20:02;14.55;;;6.22;;
69621;SDS011;56841;55.964;37.674;2023-03-24T01:22:36;13.95;;;6.55;;
69621;SDS011;56841;55.964;37.674;2023-03-24T01:25:13;14.52;;;7.25;;
69621;SDS011;56841;55.964;37.674;2023-03-24T01:27:42;14.07;;;6.95;;
69621;SDS011;56841;55.964;37.674;2023-03-24T01:30:10;13.98;;;6.65;;
69621;SDS011;56841;55.964;37.674;2023-03-24T01:32:37;14.18;;;6.15;;
69621;SDS011;56841;55.964;37.674;2023-03-24T01:35:03;15.10;;;7.78;;
69621;SDS011;56841;55.964;37.674;2023-03-24T01:37:30;11.57;;;5.60;;
69621;SDS011;56841;55.964;37.674;2023-03-24T01:39:56;15.57;;;7.28;;
69621;SDS011;56841;55.964;37.674;2023-03-24T01:42:23;18.70;;;8.50;;
69621;SDS011;56841;55.964;37.674;2023-03-24T01:44:53;14.90;;;7.15;;
69621;SDS011;56841;55.964;37.674;2023-03-24T01:47:21;14.88;;;6.75;;
69621;SDS011;56841;55.964;37.674;2023-03-24T01:49:54;14.63;;;6.68;;
69621;SDS011;56841;55.964;37.674;2023-03-24T01:52:28;14.50;;;6.93;;
69621;SDS011;56841;55.964;37.674;2023-03-24T01:55:06;13.98;;;5.90;;
69621;SDS011;56841;55.964;37.674;2023-03-24T01:57:43;20.10;;;8.57;;
69621;SDS011;56841;55.964;37.674;2023-03-24T02:00:14;16.70;;;7.13;;
69621;SDS011;56841;55.964;37.674;2023-03-24T02:03:06;12.77;;;6.07;;
69621;SDS011;56841;55.964;37.674;2023-03-24T02:05:45;18.27;;;9.10;;
69621;SDS011;56841;55.964;37.674;2023-03-24T02:08:55;15.63;;;7.38;;
69621;SDS011;56841;55.964;37.674;2023-03-24T02:11:05;14.68;;;7.60;;
69621;SDS011;56841;55.964;37.674;2023-03-24T02:13:40;15.48;;;6.68;;
69621;SDS011;56841;55.964;37.674;2023-03-24T02:32:28;14.15;;;7.38;;
69621;SDS011;56841;55.964;37.674;2023-03-24T02:45:24;13.38;;;5.95;;
69621;SDS011;56841;55.964;37.674;2023-03-24T02:51:31;14.35;;;6.65;;
69621;SDS011;56841;55.964;37.674;2023-03-24T02:56:59;13.82;;;6.78;;
69621;SDS011;56841;55.964;37.674;2023-03-24T03:00:03;15.15;;;6.70;;
69621;SDS011;56841;55.964;37.674;2023-03-24T03:03:05;16.17;;;7.43;;
69621;SDS011;56841;55.964;37.674;2023-03-24T03:05:56;15.38;;;7.43;;
69621;SDS011;56841;55.964;37.674;2023-03-24T03:08:28;16.15;;;7.30;;
69621;SDS011;56841;55.964;37.674;2023-03-24T03:10:58;15.98;;;7.72;;
69621;SDS011;56841;55.964;37.674;2023-03-24T03:13:29;16.70;;;7.80;;
69621;SDS011;56841;55.964;37.674;2023-03-24T03:15:59;15.95;;;8.05;;
69621;SDS011;56841;55.964;37.674;2023-03-24T03:18:50;16.08;;;7.13;;
69621;SDS011;56841;55.964;37.674;2023-03-24T03:21:24;13.50;;;4.90;;
69621;SDS011;56841;55.964;37.674;2023-03-24T03:23:58;13.43;;;5.57;;
69621;SDS011;56841;55.964;37.674;2023-03-24T03:26:30;10.55;;;4.70;;
69621;SDS011;56841;55.964;37.674;2023-03-24T03:29:00;13.90;;;6.55;;
69621;SDS011;56841;55.964;37.674;2023-03-24T03:31:35;15.07;;;6.68;;
69621;SDS011;56841;55.964;37.674;2023-03-24T03:34:12;17.90;;;8.23;;
69621;SDS011;56841;55.964;37.674;2023-03-24T03:36:53;16.67;;;8.75;;
69621;SDS011;56841;55.964;37.674;2023-03-24T03:39:28;12.07;;;5.35;;
69621;SDS011;56841;55.964;37.674;2023-03-24T03:42:01;12.27;;;6.25;;
69621;SDS011;56841;55.964;37.674;2023-03-24T03:44:28;13.07;;;5.50;;
69621;SDS011;56841;55.964;37.674;2023-03-24T03:46:55;17.55;;;8.77;;
69621;SDS011;56841;55.964;37.674;2023-03-24T03:49:31;18.48;;;8.80;;
69621;SDS011;56841;55.964;37.674;2023-03-24T03:51:57;14.60;;;7.15;;
69621;SDS011;56841;55.964;37.674;2023-03-24T03:54:23;11.93;;;5.97;;
69621;SDS011;56841;55.964;37.674;2023-03-24T03:56:53;16.02;;;7.63;;
69621;SDS011;56841;55.964;37.674;2023-03-24T03:59:33;16.77;;;7.70;;
69621;SDS011;56841;55.964;37.674;2023-03-24T04:08:27;15.73;;;7.75;;
69621;SDS011;56841;55.964;37.674;2023-03-24T04:11:35;18.52;;;10.50;;
69621;SDS011;56841;55.964;37.674;2023-03-24T04:20:10;15.52;;;5.88;;
69621;SDS011;56841;55.964;37.674;2023-03-24T04:25:45;20.88;;;10.05;;
69621;SDS011;56841;55.964;37.674;2023-03-24T04:28:25;19.73;;;8.27;;
69621;SDS011;56841;55.964;37.674;2023-03-24T04:36:44;16.50;;;6.93;;
69621;SDS011;56841;55.964;37.674;2023-03-24T04:39:32;22.58;;;8.80;;
69621;SDS011;56841;55.964;37.674;2023-03-24T04:42:08;20.45;;;8.82;;
69621;SDS011;56841;55.964;37.674;2023-03-24T04:44:39;22.35;;;10.02;;
69621;SDS011;56841;55.964;37.674;2023-03-24T04:47:25;20.13;;;8.57;;
69621;SDS011;56841;55.964;37.674;2023-03-24T04:50:10;27.92;;;12.30;;
69621;SDS011;56841;55.964;37.674;2023-03-24T04:52:38;24.20;;;9.90;;
69621;SDS011;56841;55.964;37.674;2023-03-24T04:55:25;18.80;;;8.27;;
69621;SDS011;56841;55.964;37.674;2023-03-24T04:58:12;17.40;;;8.50;;
69621;SDS011;56841;55.964;37.674;2023-03-24T05:00:39;24.67;;;10.00;;
69621;SDS011;56841;55.964;37.674;2023-03-24T05:03:06;20.08;;;9.55;;
69621;SDS011;56841;55.964;37.674;2023-03-24T05:05:32;19.77;;;7.65;;
69621;SDS011;56841;55.964;37.674;2023-03-24T05:07:58;25.55;;;10.50;;
69621;SDS011;56841;55.964;37.674;2023-03-24T05:10:24;22.25;;;8.75;;
69621;SDS011;56841;55.964;37.674;2023-03-24T05:12:53;17.58;;;8.43;;
69621;SDS011;56841;55.964;37.674;2023-03-24T05:15:26;23.00;;;10.55;;
69621;SDS011;56841;55.964;37.674;2023-03-24T05:17:59;21.55;;;8.95;;
69621;SDS011;56841;55.964;37.674;2023-03-24T05:20:25;21.30;;;10.57;;
69621;SDS011;56841;55.964;37.674;2023-03-24T05:22:54;20.10;;;9.23;;
69621;SDS011;56841;55.964;37.674;2023-03-24T05:25:20;22.42;;;8.48;;
69621;SDS011;56841;55.964;37.674;2023-03-24T05:27:46;20.58;;;9.32;;
69621;SDS011;56841;55.964;37.674;2023-03-24T05:30:31;28.92;;;10.75;;
69621;SDS011;56841;55.964;37.674;2023-03-24T05:33:07;17.30;;;9.18;;
69621;SDS011;56841;55.964;37.674;2023-03-24T05:35:33;25.05;;;9.57;;
69621;SDS011;56841;55.964;37.674;2023-03-24T05:37:58;19.25;;;9.93;;
69621;SDS011;56841;55.964;37.674;2023-03-24T05:40:25;21.70;;;10.80;;
69621;SDS011;56841;55.964;37.674;2023-03-24T05:42:55;19.52;;;10.32;;
69621;SDS011;56841;55.964;37.674;2023-03-24T05:45:24;25.67;;;13.07;;
69621;SDS011;56841;55.964;37.674;2023-03-24T05:47:50;22.88;;;10.15;;
69621;SDS011;56841;55.964;37.674;2023-03-24T05:50:21;21.33;;;9.52;;
69621;SDS011;56841;55.964;37.674;2023-03-24T05:52:48;26.08;;;9.70;;
69621;SDS011;56841;55.964;37.674;2023-03-24T05:55:49;20.30;;;9.15;;
69621;SDS011;56841;55.964;37.674;2023-03-24T05:58:43;28.50;;;15.05;;
69621;SDS011;56841;55.964;37.674;2023-03-24T06:01:10;20.08;;;9.45;;
69621;SDS011;56841;55.964;37.674;2023-03-24T06:03:37;18.83;;;8.45;;
69621;SDS011;56841;55.964;37.674;2023-03-24T06:06:08;17.02;;;8.98;;
69621;SDS011;56841;55.964;37.674;2023-03-24T06:08:39;25.70;;;11.73;;
69621;SDS011;56841;55.964;37.674;2023-03-24T06:11:06;24.20;;;10.77;;
69621;SDS011;56841;55.964;37.674;2023-03-24T06:13:41;23.00;;;10.48;;
69621;SDS011;56841;55.964;37.674;2023-03-24T06:16:09;25.60;;;12.20;;
69621;SDS011;56841;55.964;37.674;2023-03-24T06:18:47;20.73;;;8.57;;
69621;SDS011;56841;55.964;37.674;2023-03-24T06:21:32;23.27;;;9.68;;
69621;SDS011;56841;55.964;37.674;2023-03-24T06:23:59;22.52;;;10.30;;
69621;SDS011;56841;55.964;37.674;2023-03-24T06:26:28;27.85;;;11.18;;
69621;SDS011;56841;55.964;37.674;2023-03-24T06:28:57;20.55;;;9.27;;
69621;SDS011;56841;55.964;37.674;2023-03-24T06:31:25;20.38;;;9.52;;
69621;SDS011;56841;55.964;37.674;2023-03-24T06:33:53;17.67;;;7.72;;
69621;SDS011;56841;55.964;37.674;2023-03-24T06:36:19;30.88;;;12.27;;
69621;SDS011;56841;55.964;37.674;2023-03-24T06:38:48;21.55;;;9.50;;
69621;SDS011;56841;55.964;37.674;2023-03-24T06:41:17;22.83;;;8.70;;
69621;SDS011;56841;55.964;37.674;2023-03-24T06:43:43;24.20;;;9.73;;
69621;SDS011;56841;55.964;37.674;2023-03-24T06:46:09;18.17;;;9.35;;
69621;SDS011;56841;55.964;37.674;2023-03-24T06:48:38;18.67;;;7.57;;
69621;SDS011;56841;55.964;37.674;2023-03-24T06:51:06;28.00;;;10.57;;
69621;SDS011;56841;55.964;37.674;2023-03-24T06:53:32;21.48;;;11.00;;
69621;SDS011;56841;55.964;37.674;2023-03-24T06:55:58;19.27;;;7.57;;
69621;SDS011;56841;55.964;37.674;2023-03-24T06:58:27;19.33;;;8.52;;
69621;SDS011;56841;55.964;37.674;2023-03-24T07:01:15;19.85;;;8.10;;
69621;SDS011;56841;55.964;37.674;2023-03-24T07:04:02;14.00;;;7.00;;
69621;SDS011;56841;55.964;37.674;2023-03-24T07:06:37;18.60;;;7.78;;
69621;SDS011;56841;55.964;37.674;2023-03-24T07:09:11;16.25;;;7.18;;
69621;SDS011;56841;55.964;37.674;2023-03-24T07:11:37;16.02;;;6.70;;
69621;SDS011;56841;55.964;37.674;2023-03-24T07:14:03;23.00;;;8.35;;
69621;SDS011;56841;55.964;37.674;2023-03-24T07:16:34;16.27;;;6.93;;
69621;SDS011;56841;55.964;37.674;2023-03-24T07:19:21;15.63;;;7.07;;
69621;SDS011;56841;55.964;37.674;2023-03-24T07:21:54;16.80;;;7.13;;
69621;SDS011;56841;55.964;37.674;2023-03-24T07:29:42;17.80;;;7.10;;
69621;SDS011;56841;55.964;37.674;2023-03-24T07:32:25;11.98;;;6.15;;
69621;SDS011;56841;55.964;37.674;2023-03-24T07:34:53;17.30;;;7.97;;
69621;SDS011;56841;55.964;37.674;2023-03-24T07:37:19;17.73;;;7.25;;
69621;SDS011;56841;55.964;37.674;2023-03-24T07:39:44;12.70;;;6.65;;
69621;SDS011;56841;55.964;37.674;2023-03-24T07:42:10;13.23;;;5.95;;
69621;SDS011;56841;55.964;37.674;2023-03-24T07:44:58;11.25;;;5.47;;
69621;SDS011;56841;55.964;37.674;2023-03-24T07:47:24;13.55;;;6.38;;
69621;SDS011;56841;55.964;37.674;2023-03-24T07:49:50;14.00;;;7.28;;
69621;SDS011;56841;55.964;37.674;2023-03-24T07:52:17;12.85;;;6.38;;
69621;SDS011;56841;55.964;37.674;2023-03-24T07:54:47;15.25;;;6.93;;
69621;SDS011;56841;55.964;37.674;2023-03-24T07:57:32;14.13;;;7.45;;
69621;SDS011;56841;55.964;37.674;2023-03-24T08:00:05;16.02;;;7.05;;
69621;SDS011;56841;55.964;37.674;2023-03-24T08:02:48;13.23;;;7.05;;
69621;SDS011;56841;55.964;37.674;2023-03-24T08:05:27;10.65;;;5.72;;
69621;SDS011;56841;55.964;37.674;2023-03-24T08:08:30;9.32;;;4.10;;
69621;SDS011;56841;55.964;37.674;2023-03-24T08:10:56;14.68;;;6.65;;
69621;SDS011;56841;55.964;37.674;2023-03-24T08:13:22;12.52;;;5.22;;
69621;SDS011;56841;55.964;37.674;2023-03-24T08:15:48;10.80;;;4.65;;
69621;SDS011;56841;55.964;37.674;2023-03-24T08:18:14;9.73;;;4.50;;
69621;SDS011;56841;55.964;37.674;2023-03-24T08:20:40;7.82;;;3.72;;
69621;SDS011;56841;55.964;37.674;2023-03-24T08:23:06;9.80;;;4.32;;
69621;SDS011;56841;55.964;37.674;2023-03-24T08:25:33;10.13;;;4.10;;
69621;SDS011;56841;55.964;37.674;2023-03-24T08:28:00;16.33;;;6.35;;
69621;SDS011;56841;55.964;37.674;2023-03-24T08:30:26;12.55;;;5.97;;
69621;SDS011;56841;55.964;37.674;2023-03-24T08:32:53;9.70;;;5.68;;
69621;SDS011;56841;55.964;37.674;2023-03-24T08:35:25;14.98;;;7.10;;
69621;SDS011;56841;55.964;37.674;2023-03-24T08:37:53;13.15;;;5.53;;
69621;SDS011;56841;55.964;37.674;2023-03-24T08:40:20;11.00;;;4.47;;
69621;SDS011;56841;55.964;37.674;2023-03-24T08:42:52;12.82;;;5.82;;
69621;SDS011;56841;55.964;37.674;2023-03-24T08:45:20;12.13;;;5.63;;
69621;SDS011;56841;55.964;37.674;2023-03-24T08:47:48;12.25;;;5.03;;
69621;SDS011;56841;55.964;37.674;2023-03-24T08:50:16;12.90;;;5.68;;
69621;SDS011;56841;55.964;37.674;2023-03-24T08:52:44;8.75;;;4.70;;
69621;SDS011;56841;55.964;37.674;2023-03-24T08:55:13;10.00;;;4.55;;
69621;SDS011;56841;55.964;37.674;2023-03-24T08:57:40;11.13;;;4.68;;
69621;SDS011;56841;55.964;37.674;2023-03-24T09:00:06;10.52;;;4.82;;
69621;SDS011;56841;55.964;37.674;2023-03-24T09:02:39;10.30;;;4.78;;
69621;SDS011;56841;55.964;37.674;2023-03-24T09:05:09;8.38;;;3.95;;
69621;SDS011;56841;55.964;37.674;2023-03-24T09:07:36;9.30;;;4.25;;
69621;SDS011;56841;55.964;37.674;2023-03-24T09:10:02;11.43;;;6.30;;
69621;SDS011;56841;55.964;37.674;2023-03-24T09:12:29;9.43;;;5.05;;
69621;SDS011;56841;55.964;37.674;2023-03-24T09:14:55;11.43;;;5.30;;
69621;SDS011;56841;55.964;37.674;2023-03-24T09:17:21;7.50;;;3.53;;
69621;SDS011;56841;55.964;37.674;2023-03-24T09:19:46;12.20;;;5.40;;
69621;SDS011;56841;55.964;37.674;2023-03-24T09:22:12;8.40;;;4.72;;
69621;SDS011;56841;55.964;37.674;2023-03-24T09:24:38;11.77;;;4.88;;
69621;SDS011;56841;55.964;37.674;2023-03-24T09:27:04;8.10;;;4.32;;
69621;SDS011;56841;55.964;37.674;2023-03-24T09:29:29;8.98;;;5.20;;
69621;SDS011;56841;55.964;37.674;2023-03-24T09:31:55;10.70;;;4.40;;
69621;SDS011;56841;55.964;37.674;2023-03-24T09:34:22;7.60;;;3.85;;
69621;SDS011;56841;55.964;37.674;2023-03-24T09:36:49;10.65;;;4.60;;
69621;SDS011;56841;55.964;37.674;2023-03-24T09:39:15;9.45;;;5.13;;
69621;SDS011;56841;55.964;37.674;2023-03-24T09:41:42;10.82;;;5.18;;
69621;SDS011;56841;55.964;37.674;2023-03-24T09:47:24;7.93;;;3.45;;
69621;SDS011;56841;55.964;37.674;2023-03-24T09:50:40;11.95;;;3.80;;
69621;SDS011;56841;55.964;37.674;2023-03-24T09:56:15;13.05;;;4.82;;
69621;SDS011;56841;55.964;37.674;2023-03-24T09:58:43;9.43;;;3.97;;
69621;SDS011;56841;55.964;37.674;2023-03-24T10:01:14;9.48;;;4.57;;
69621;SDS011;56841;55.964;37.674;2023-03-24T10:03:42;10.45;;;4.20;;
69621;SDS011;56841;55.964;37.674;2023-03-24T10:06:19;11.23;;;6.20;;
69621;SDS011;56841;55.964;37.674;2023-03-24T10:14:37;13.07;;;8.13;;
69621;SDS011;56841;55.964;37.674;2023-03-24T10:27:56;12.43;;;6.15;;
69621;SDS011;56841;55.964;37.674;2023-03-24T10:30:30;12.98;;;7.25;;
69621;SDS011;56841;55.964;37.674;2023-03-24T10:33:01;13.65;;;5.43;;
69621;SDS011;56841;55.964;37.674;2023-03-24T10:38:02;11.45;;;5.10;;
69621;SDS011;56841;55.964;37.674;2023-03-24T10:40:33;12.82;;;6.18;;
69621;SDS011;56841;55.964;37.674;2023-03-24T10:43:00;9.18;;;5.13;;
69621;SDS011;56841;55.964;37.674;2023-03-24T10:45:28;8.93;;;4.63;;
69621;SDS011;56841;55.964;37.674;2023-03-24T10:47:58;8.70;;;3.47;;
69621;SDS011;56841;55.964;37.674;2023-03-24T10:50:27;10.82;;;4.50;;
69621;SDS011;56841;55.964;37.674;2023-03-24T10:52:54;10.15;;;4.85;;
69621;SDS011;56841;55.964;37.674;2023-03-24T10:55:22;8.20;;;4.13;;
69621;SDS011;56841;55.964;37.674;2023-03-24T10:57:56;9.68;;;4.40;;
69621;SDS011;56841;55.964;37.674;2023-03-24T11:00:28;10.43;;;3.80;;
69621;SDS011;56841;55.964;37.674;2023-03-24T11:05:42;6.38;;;3.15;;
69621;SDS011;56841;55.964;37.674;2023-03-24T11:08:18;7.85;;;3.03;;
69621;SDS011;56841;55.964;37.674;2023-03-24T11:10:51;5.72;;;2.58;;
69621;SDS011;56841;55.964;37.674;2023-03-24T11:13:18;5.65;;;2.80;;
69621;SDS011;56841;55.964;37.674;2023-03-24T11:21:35;8.55;;;3.90;;
69621;SDS011;56841;55.964;37.674;2023-03-24T11:24:07;7.57;;;2.78;;
69621;SDS011;56841;55.964;37.674;2023-03-24T11:26:37;5.05;;;2.63;;
69621;SDS011;56841;55.964;37.674;2023-03-24T11:29:06;5.63;;;2.45;;
69621;SDS011;56841;55.964;37.674;2023-03-24T11:31:38;5.38;;;2.30;;
69621;SDS011;56841;55.964;37.674;2023-03-24T11:34:06;5.20;;;2.42;;
69621;SDS011;56841;55.964;37.674;2023-03-24T11:39:43;5.80;;;2.65;;
69621;SDS011;56841;55.964;37.674;2023-03-24T11:42:31;5.60;;;3.28;;
69621;SDS011;56841;55.964;37.674;2023-03-24T11:44:56;5.43;;;2.83;;
69621;SDS011;56841;55.964;37.674;2023-03-24T11:52:36;3.78;;;1.83;;
69621;SDS011;56841;55.964;37.674;2023-03-24T11:55:14;5.60;;;2.50;;
69621;SDS011;56841;55.964;37.674;2023-03-24T12:00:34;4.70;;;2.10;;
69621;SDS011;56841;55.964;37.674;2023-03-24T12:03:23;4.57;;;2.15;;
69621;SDS011;56841;55.964;37.674;2023-03-24T12:11:14;4.72;;;2.35;;
69621;SDS011;56841;55.964;37.674;2023-03-24T12:13:57;5.78;;;2.38;;
69621;SDS011;56841;55.964;37.674;2023-03-24T12:21:43;4.65;;;2.05;;
69621;SDS011;56841;55.964;37.674;2023-03-24T12:35:57;3.55;;;1.70;;
69621;SDS011;56841;55.964;37.674;2023-03-24T12:41:32;6.35;;;2.88;;
69621;SDS011;56841;55.964;37.674;2023-03-24T12:51:51;3.33;;;1.70;;
69621;SDS011;56841;55.964;37.674;2023-03-24T12:57:01;4.45;;;2.22;;
69621;SDS011;56841;55.964;37.674;2023-03-24T13:02:22;3.70;;;1.33;;
69621;SDS011;56841;55.964;37.674;2023-03-24T13:04:53;5.15;;;2.42;;
69621;SDS011;56841;55.964;37.674;2023-03-24T13:07:24;5.13;;;1.88;;
69621;SDS011;56841;55.964;37.674;2023-03-24T13:10:00;5.55;;;1.90;;
69621;SDS011;56841;55.964;37.674;2023-03-24T13:20:33;2.80;;;1.50;;
69621;SDS011;56841;55.964;37.674;2023-03-24T13:31:44;2.88;;;1.48;;
69621;SDS011;56841;55.964;37.674;2023-03-24T13:34:24;3.28;;;1.70;;
69621;SDS011;56841;55.964;37.674;2023-03-24T13:36:54;3.03;;;1.27;;
69621;SDS011;56841;55.964;37.674;2023-03-24T13:39:24;3.70;;;1.75;;
69621;SDS011;56841;55.964;37.674;2023-03-24T13:41:52;3.88;;;1.55;;
69621;SDS011;56841;55.964;37.674;2023-03-24T13:44:26;4.78;;;2.05;;
69621;SDS011;56841;55.964;37.674;2023-03-24T13:47:04;4.72;;;1.83;;
69621;SDS011;56841;55.964;37.674;2023-03-24T13:49:36;3.05;;;1.58;;
69621;SDS011;56841;55.964;37.674;2023-03-24T13:52:04;3.40;;;1.42;;
69621;SDS011;56841;55.964;37.674;2023-03-24T13:54:44;3.78;;;1.55;;
69621;SDS011;56841;55.964;37.674;2023-03-24T13:57:13;4.57;;;1.60;;
69621;SDS011;56841;55.964;37.674;2023-03-24T14:02:53;2.20;;;1.00;;
69621;SDS011;56841;55.964;37.674;2023-03-24T14:10:43;2.63;;;1.52;;
69621;SDS011;56841;55.964;37.674;2023-03-24T14:15:55;4.72;;;1.77;;
69621;SDS011;56841;55.964;37.674;2023-03-24T14:23:24;5.30;;;1.88;;
69621;SDS011;56841;55.964;37.674;2023-03-24T14:26:07;5.30;;;1.55;;
69621;SDS011;56841;55.964;37.674;2023-03-24T14:28:43;5.30;;;2.95;;
69621;SDS011;56841;55.964;37.674;2023-03-24T14:36:39;2.75;;;1.30;;
69621;SDS011;56841;55.964;37.674;2023-03-24T14:41:35;3.33;;;1.85;;
69621;SDS011;56841;55.964;37.674;2023-03-24T14:44:04;2.67;;;1.23;;
69621;SDS011;56841;55.964;37.674;2023-03-24T14:51:53;3.65;;;1.38;;
69621;SDS011;56841;55.964;37.674;2023-03-24T14:54:35;3.38;;;1.25;;
69621;SDS011;56841;55.964;37.674;2023-03-24T14:57:04;4.20;;;1.42;;
69621;SDS011;56841;55.964;37.674;2023-03-24T14:59:38;4.60;;;2.10;;
69621;SDS011;56841;55.964;37.674;2023-03-24T15:07:40;3.65;;;1.17;;
69621;SDS011;56841;55.964;37.674;2023-03-24T15:10:18;2.20;;;1.08;;
69621;SDS011;56841;55.964;37.674;2023-03-24T15:12:47;3.85;;;1.67;;
69621;SDS011;56841;55.964;37.674;2023-03-24T15:15:15;3.58;;;1.60;;
69621;SDS011;56841;55.964;37.674;2023-03-24T15:17:46;4.45;;;1.90;;
69621;SDS011;56841;55.964;37.674;2023-03-24T15:22:44;4.78;;;2.40;;
69621;SDS011;56841;55.964;37.674;2023-03-24T15:25:10;16.67;;;5.05;;
69621;SDS011;56841;55.964;37.674;2023-03-24T15:27:38;9.95;;;2.90;;
69621;SDS011;56841;55.964;37.674;2023-03-24T15:30:13;6.03;;;2.70;;
69621;SDS011;56841;55.964;37.674;2023-03-24T15:32:40;9.30;;;3.15;;
69621;SDS011;56841;55.964;37.674;2023-03-24T15:35:17;7.93;;;2.70;;
69621;SDS011;56841;55.964;37.674;2023-03-24T15:37:52;6.82;;;2.60;;
69621;SDS011;56841;55.964;37.674;2023-03-24T15:42:56;8.52;;;2.60;;
69621;SDS011;56841;55.964;37.674;2023-03-24T15:45:28;4.85;;;2.20;;
69621;SDS011;56841;55.964;37.674;2023-03-24T15:48:03;7.63;;;2.70;;
69621;SDS011;56841;55.964;37.674;2023-03-24T15:53:05;4.38;;;2.10;;
69621;SDS011;56841;55.964;37.674;2023-03-24T15:55:46;6.15;;;2.25;;
69621;SDS011;56841;55.964;37.674;2023-03-24T15:58:25;5.03;;;2.30;;
69621;SDS011;56841;55.964;37.674;2023-03-24T16:00:57;5.60;;;1.80;;
69621;SDS011;56841;55.964;37.674;2023-03-24T16:03:24;6.05;;;2.08;;
69621;SDS011;56841;55.964;37.674;2023-03-24T16:05:51;5.30;;;1.65;;
69621;SDS011;56841;55.964;37.674;2023-03-24T16:08:30;5.03;;;2.10;;
69621;SDS011;56841;55.964;37.674;2023-03-24T16:11:10;4.28;;;1.50;;
69621;SDS011;56841;55.964;37.674;2023-03-24T16:13:38;4.97;;;1.50;;
69621;SDS011;56841;55.964;37.674;2023-03-24T16:18:43;4.70;;;1.23;;
69621;SDS011;56841;55.964;37.674;2023-03-24T16:21:14;3.65;;;1.10;;
69621;SDS011;56841;55.964;37.674;2023-03-24T16:23:41;6.72;;;1.73;;
69621;SDS011;56841;55.964;37.674;2023-03-24T16:26:17;4.32;;;1.50;;
69621;SDS011;56841;55.964;37.674;2023-03-24T16:28:48;4.80;;;1.60;;
69621;SDS011;56841;55.964;37.674;2023-03-24T16:31:17;4.80;;;1.92;;
69621;SDS011;56841;55.964;37.674;2023-03-24T16:33:55;5.85;;;1.92;;
69621;SDS011;56841;55.964;37.674;2023-03-24T16:36:22;4.03;;;1.63;;
69621;SDS011;56841;55.964;37.674;2023-03-24T16:38:51;9.30;;;3.15;;
69621;SDS011;56841;55.964;37.674;2023-03-24T16:41:22;7.90;;;3.05;;
69621;SDS011;56841;55.964;37.674;2023-03-24T16:43:48;15.32;;;5.43;;
69621;SDS011;56841;55.964;37.674;2023-03-24T16:46:15;10.32;;;2.88;;
69621;SDS011;56841;55.964;37.674;2023-03-24T16:48:52;14.73;;;4.13;;
69621;SDS011;56841;55.964;37.674;2023-03-24T16:51:18;5.32;;;2.10;;
69621;SDS011;56841;55.964;37.674;2023-03-24T16:53:44;3.70;;;1.50;;
69621;SDS011;56841;55.964;37.674;2023-03-24T16:56:15;4.45;;;1.98;;
69621;SDS011;56841;55.964;37.674;2023-03-24T16:58:43;4.30;;;1.65;;
69621;SDS011;56841;55.964;37.674;2023-03-24T17:01:26;4.97;;;1.67;;
69621;SDS011;56841;55.964;37.674;2023-03-24T17:03:53;4.22;;;2.00;;
69621;SDS011;56841;55.964;37.674;2023-03-24T17:06:22;5.97;;;1.92;;
69621;SDS011;56841;55.964;37.674;2023-03-24T17:08:48;4.88;;;2.10;;
69621;SDS011;56841;55.964;37.674;2023-03-24T17:11:14;9.55;;;3.42;;
69621;SDS011;56841;55.964;37.674;2023-03-24T17:13:42;5.13;;;1.63;;
69621;SDS011;56841;55.964;37.674;2023-03-24T17:16:08;2.10;;;0.85;;
69621;SDS011;56841;55.964;37.674;2023-03-24T17:18:34;4.45;;;1.38;;
69621;SDS011;56841;55.964;37.674;2023-03-24T17:21:05;9.07;;;3.17;;
69621;SDS011;56841;55.964;37.674;2023-03-24T17:23:42;2.25;;;1.00;;
69621;SDS011;56841;55.964;37.674;2023-03-24T17:26:09;13.55;;;3.03;;
69621;SDS011;56841;55.964;37.674;2023-03-24T17:28:35;5.22;;;1.63;;
69621;SDS011;56841;55.964;37.674;2023-03-24T17:31:01;9.32;;;3.03;;
69621;SDS011;56841;55.964;37.674;2023-03-24T17:33:27;8.85;;;2.83;;
69621;SDS011;56841;55.964;37.674;2023-03-24T17:35:52;7.03;;;2.20;;
69621;SDS011;56841;55.964;37.674;2023-03-24T17:38:18;4.25;;;1.77;;
69621;SDS011;56841;55.964;37.674;2023-03-24T17:40:45;7.15;;;3.05;;
69621;SDS011;56841;55.964;37.674;2023-03-24T17:43:11;5.03;;;2.22;;
69621;SDS011;56841;55.964;37.674;2023-03-24T17:45:38;5.13;;;1.83;;
69621;SDS011;56841;55.964;37.674;2023-03-24T17:48:05;7.30;;;2.25;;
69621;SDS011;56841;55.964;37.674;2023-03-24T17:50:31;13.30;;;4.70;;
69621;SDS011;56841;55.964;37.674;2023-03-24T17:52:57;9.60;;;3.85;;
69621;SDS011;56841;55.964;37.674;2023-03-24T17:55:25;6.25;;;2.10;;
69621;SDS011;56841;55.964;37.674;2023-03-24T17:57:53;6.93;;;2.90;;
69621;SDS011;56841;55.964;37.674;2023-03-24T18:00:22;10.30;;;3.90;;
69621;SDS011;56841;55.964;37.674;2023-03-24T18:02:48;14.88;;;5.80;;
69621;SDS011;56841;55.964;37.674;2023-03-24T18:05:14;14.20;;;5.82;;
69621;SDS011;56841;55.964;37.674;2023-03-24T18:07:40;11.23;;;4.18;;
69621;SDS011;56841;55.964;37.674;2023-03-24T18:10:06;9.95;;;3.97;;
69621;SDS011;56841;55.964;37.674;2023-03-24T18:12:32;12.23;;;4.75;;
69621;SDS011;56841;55.964;37.674;2023-03-24T18:14:58;8.95;;;3.95;;
69621;SDS011;56841;55.964;37.674;2023-03-24T18:17:24;13.45;;;4.50;;